sensor_id;sensor_type;location;lat;lon;timestamp;temperature;humidity
53294;DHT22;39181;53.440;5.644;2023-09-19T00:01:06;14.90;99.90
53294;DHT22;39181;53.440;5.644;2023-09-19T00:03:35;14.90;99.90
53294;DHT22;39181;53.440;5.644;2023-09-19T00:06:04;14.90;99.90
53294;DHT22;39181;53.440;5.644;2023-09-19T00:08:30;14.90;99.90
53294;DHT22;39181;53.440;5.644;2023-09-19T00:10:56;14.90;99.90
53294;DHT22;39181;53.440;5.644;2023-09-19T00:13:31;14.90;99.90
53294;DHT22;39181;53.440;5.644;2023-09-19T00:15:57;15.00;99.90
53294;DHT22;39181;53.440;5.644;2023-09-19T00:18:24;14.90;99.90
53294;DHT22;39181;53.440;5.644;2023-09-19T00:20:57;15.00;99.90
53294;DHT22;39181;53.440;5.644;2023-09-19T00:23:23;14.90;99.90
53294;DHT22;39181;53.440;5.644;2023-09-19T00:25:50;14.90;99.90
53294;DHT22;39181;53.440;5.644;2023-09-19T00:28:17;14.90;99.90
53294;DHT22;39181;53.440;5.644;2023-09-19T00:30:44;15.00;99.90
53294;DHT22;39181;53.440;5.644;2023-09-19T00:33:09;15.00;99.90
53294;DHT22;39181;53.440;5.644;2023-09-19T00:35:36;15.10;99.90
53294;DHT22;39181;53.440;5.644;2023-09-19T00:38:02;15.10;99.90
53294;DHT22;39181;53.440;5.644;2023-09-19T00:40:29;15.20;99.90
53294;DHT22;39181;53.440;5.644;2023-09-19T00:42:57;15.20;99.90
53294;DHT22;39181;53.440;5.644;2023-09-19T00:45:26;15.20;99.90
53294;DHT22;39181;53.440;5.644;2023-09-19T00:47:52;15.00;99.90
53294;DHT22;39181;53.440;5.644;2023-09-19T00:50:21;15.00;99.90
53294;DHT22;39181;53.440;5.644;2023-09-19T00:52:48;14.80;99.90
53294;DHT22;39181;53.440;5.644;2023-09-19T00:55:16;14.80;99.90
53294;DHT22;39181;53.440;5.644;2023-09-19T00:57:42;14.80;99.90
53294;DHT22;39181;53.440;5.644;2023-09-19T01:00:09;14.70;99.90
53294;DHT22;39181;53.440;5.644;2023-09-19T01:02:42;14.70;99.90
53294;DHT22;39181;53.440;5.644;2023-09-19T01:05:11;14.60;99.90
53294;DHT22;39181;53.440;5.644;2023-09-19T01:07:38;14.60;99.90
53294;DHT22;39181;53.440;5.644;2023-09-19T01:10:08;14.60;99.90
53294;DHT22;39181;53.440;5.644;2023-09-19T01:18:28;14.80;99.90
53294;DHT22;39181;53.440;5.644;2023-09-19T01:21:36;14.80;99.90
53294;DHT22;39181;53.440;5.644;2023-09-19T01:29:48;15.10;99.90
53294;DHT22;39181;53.440;5.644;2023-09-19T01:32:19;15.10;99.90
53294;DHT22;39181;53.440;5.644;2023-09-19T01:34:55;15.10;99.90
53294;DHT22;39181;53.440;5.644;2023-09-19T01:37:30;15.20;99.90
53294;DHT22;39181;53.440;5.644;2023-09-19T01:40:06;15.30;99.90
53294;DHT22;39181;53.440;5.644;2023-09-19T01:43:03;15.30;99.90
53294;DHT22;39181;53.440;5.644;2023-09-19T01:48:42;15.30;99.90
53294;DHT22;39181;53.440;5.644;2023-09-19T01:51:15;15.30;99.90
53294;DHT22;39181;53.440;5.644;2023-09-19T01:53:53;15.30;99.90
53294;DHT22;39181;53.440;5.644;2023-09-19T01:56:32;15.20;99.90
53294;DHT22;39181;53.440;5.644;2023-09-19T01:59:07;15.40;99.90
53294;DHT22;39181;53.440;5.644;2023-09-19T02:01:34;15.40;99.90
53294;DHT22;39181;53.440;5.644;2023-09-19T02:04:02;15.30;99.90
53294;DHT22;39181;53.440;5.644;2023-09-19T02:06:28;15.40;99.90
53294;DHT22;39181;53.440;5.644;2023-09-19T02:08:54;15.40;99.90
53294;DHT22;39181;53.440;5.644;2023-09-19T02:11:20;15.30;99.90
53294;DHT22;39181;53.440;5.644;2023-09-19T02:13:45;15.30;99.90
53294;DHT22;39181;53.440;5.644;2023-09-19T02:16:11;15.30;99.90
53294;DHT22;39181;53.440;5.644;2023-09-19T02:18:38;15.40;99.90
53294;DHT22;39181;53.440;5.644;2023-09-19T02:21:04;15.40;99.90
53294;DHT22;39181;53.440;5.644;2023-09-19T02:23:32;15.40;99.90
53294;DHT22;39181;53.440;5.644;2023-09-19T02:25:59;15.40;99.90
53294;DHT22;39181;53.440;5.644;2023-09-19T02:28:28;15.40;99.90
53294;DHT22;39181;53.440;5.644;2023-09-19T02:30:58;15.40;99.90
53294;DHT22;39181;53.440;5.644;2023-09-19T02:33:24;15.40;99.90
53294;DHT22;39181;53.440;5.644;2023-09-19T02:35:49;15.40;99.90
53294;DHT22;39181;53.440;5.644;2023-09-19T02:38:15;15.40;99.90
53294;DHT22;39181;53.440;5.644;2023-09-19T02:40:46;15.40;99.90
53294;DHT22;39181;53.440;5.644;2023-09-19T02:43:11;15.40;99.90
53294;DHT22;39181;53.440;5.644;2023-09-19T02:45:37;15.30;99.90
53294;DHT22;39181;53.440;5.644;2023-09-19T02:48:03;15.40;99.90
53294;DHT22;39181;53.440;5.644;2023-09-19T02:50:29;15.30;99.90
53294;DHT22;39181;53.440;5.644;2023-09-19T02:52:55;15.30;99.90
53294;DHT22;39181;53.440;5.644;2023-09-19T02:55:21;15.30;99.90
53294;DHT22;39181;53.440;5.644;2023-09-19T02:57:53;15.20;99.90
53294;DHT22;39181;53.440;5.644;2023-09-19T03:00:20;15.20;99.90
53294;DHT22;39181;53.440;5.644;2023-09-19T03:02:47;15.10;99.90
53294;DHT22;39181;53.440;5.644;2023-09-19T03:05:12;15.20;99.90
53294;DHT22;39181;53.440;5.644;2023-09-19T03:07:38;15.20;99.90
53294;DHT22;39181;53.440;5.644;2023-09-19T03:10:06;15.20;99.90
53294;DHT22;39181;53.440;5.644;2023-09-19T03:12:32;15.20;99.90
53294;DHT22;39181;53.440;5.644;2023-09-19T03:14:59;15.20;99.90
53294;DHT22;39181;53.440;5.644;2023-09-19T03:17:25;15.20;99.90
53294;DHT22;39181;53.440;5.644;2023-09-19T03:19:50;15.20;99.90
53294;DHT22;39181;53.440;5.644;2023-09-19T03:22:16;15.20;99.90
53294;DHT22;39181;53.440;5.644;2023-09-19T03:24:42;15.20;99.90
53294;DHT22;39181;53.440;5.644;2023-09-19T03:27:09;15.10;99.90
53294;DHT22;39181;53.440;5.644;2023-09-19T03:29:35;15.10;99.90
53294;DHT22;39181;53.440;5.644;2023-09-19T03:32:01;15.10;99.90
53294;DHT22;39181;53.440;5.644;2023-09-19T03:34:27;15.10;99.90
53294;DHT22;39181;53.440;5.644;2023-09-19T03:36:52;15.10;99.90
53294;DHT22;39181;53.440;5.644;2023-09-19T03:39:18;15.10;99.90
53294;DHT22;39181;53.440;5.644;2023-09-19T03:41:43;15.10;99.90
53294;DHT22;39181;53.440;5.644;2023-09-19T03:44:10;15.00;99.90
53294;DHT22;39181;53.440;5.644;2023-09-19T03:46:35;15.10;99.90
53294;DHT22;39181;53.440;5.644;2023-09-19T03:49:01;15.10;99.90
53294;DHT22;39181;53.440;5.644;2023-09-19T03:51:28;15.10;99.90
53294;DHT22;39181;53.440;5.644;2023-09-19T03:53:53;15.10;99.90
53294;DHT22;39181;53.440;5.644;2023-09-19T03:56:19;15.10;99.90
53294;DHT22;39181;53.440;5.644;2023-09-19T03:58:44;15.20;99.90
53294;DHT22;39181;53.440;5.644;2023-09-19T04:01:10;15.20;99.90
53294;DHT22;39181;53.440;5.644;2023-09-19T04:03:35;15.20;99.90
53294;DHT22;39181;53.440;5.644;2023-09-19T04:06:15;15.20;99.90
53294;DHT22;39181;53.440;5.644;2023-09-19T04:08:41;15.20;99.90
53294;DHT22;39181;53.440;5.644;2023-09-19T04:11:07;15.20;99.90
53294;DHT22;39181;53.440;5.644;2023-09-19T04:13:33;15.20;99.90
53294;DHT22;39181;53.440;5.644;2023-09-19T04:15:58;15.10;99.90
53294;DHT22;39181;53.440;5.644;2023-09-19T04:18:24;15.10;99.90
53294;DHT22;39181;53.440;5.644;2023-09-19T04:20:49;15.10;99.90
53294;DHT22;39181;53.440;5.644;2023-09-19T04:23:15;15.10;99.90
53294;DHT22;39181;53.440;5.644;2023-09-19T04:25:41;15.10;99.90
53294;DHT22;39181;53.440;5.644;2023-09-19T04:28:06;15.20;99.90
53294;DHT22;39181;53.440;5.644;2023-09-19T04:30:32;15.20;99.90
53294;DHT22;39181;53.440;5.644;2023-09-19T04:32:57;15.20;99.90
53294;DHT22;39181;53.440;5.644;2023-09-19T04:35:23;15.20;99.90
53294;DHT22;39181;53.440;5.644;2023-09-19T04:37:50;15.20;99.90
53294;DHT22;39181;53.440;5.644;2023-09-19T04:40:16;15.20;99.90
53294;DHT22;39181;53.440;5.644;2023-09-19T04:42:44;15.20;99.90
53294;DHT22;39181;53.440;5.644;2023-09-19T04:45:11;15.20;99.90
53294;DHT22;39181;53.440;5.644;2023-09-19T04:47:38;15.20;99.90
53294;DHT22;39181;53.440;5.644;2023-09-19T04:50:09;15.20;99.90
53294;DHT22;39181;53.440;5.644;2023-09-19T04:52:42;15.10;99.90
53294;DHT22;39181;53.440;5.644;2023-09-19T04:55:15;15.20;99.90
53294;DHT22;39181;53.440;5.644;2023-09-19T04:57:48;15.30;99.90
53294;DHT22;39181;53.440;5.644;2023-09-19T05:00:18;15.30;99.90
53294;DHT22;39181;53.440;5.644;2023-09-19T05:02:45;15.40;99.90
53294;DHT22;39181;53.440;5.644;2023-09-19T05:05:11;15.40;99.90
53294;DHT22;39181;53.440;5.644;2023-09-19T05:07:39;15.40;99.90
53294;DHT22;39181;53.440;5.644;2023-09-19T05:10:05;15.40;99.90
53294;DHT22;39181;53.440;5.644;2023-09-19T05:12:34;15.40;99.90
53294;DHT22;39181;53.440;5.644;2023-09-19T05:15:03;15.40;99.90
53294;DHT22;39181;53.440;5.644;2023-09-19T05:17:30;15.40;99.90
53294;DHT22;39181;53.440;5.644;2023-09-19T05:19:57;15.50;99.90
53294;DHT22;39181;53.440;5.644;2023-09-19T05:22:23;15.40;99.90
53294;DHT22;39181;53.440;5.644;2023-09-19T05:24:50;15.40;99.90
53294;DHT22;39181;53.440;5.644;2023-09-19T05:27:16;15.40;99.90
53294;DHT22;39181;53.440;5.644;2023-09-19T05:29:45;15.40;99.90
53294;DHT22;39181;53.440;5.644;2023-09-19T05:32:11;15.40;99.90
53294;DHT22;39181;53.440;5.644;2023-09-19T05:34:37;15.40;99.90
53294;DHT22;39181;53.440;5.644;2023-09-19T05:37:04;15.40;99.90
53294;DHT22;39181;53.440;5.644;2023-09-19T05:39:32;15.40;99.90
53294;DHT22;39181;53.440;5.644;2023-09-19T05:41:58;15.40;99.90
53294;DHT22;39181;53.440;5.644;2023-09-19T05:44:25;15.40;99.90
53294;DHT22;39181;53.440;5.644;2023-09-19T05:46:51;15.40;99.90
53294;DHT22;39181;53.440;5.644;2023-09-19T05:49:17;15.40;99.90
53294;DHT22;39181;53.440;5.644;2023-09-19T05:51:43;15.40;99.90
53294;DHT22;39181;53.440;5.644;2023-09-19T05:54:09;15.40;99.90
53294;DHT22;39181;53.440;5.644;2023-09-19T05:56:36;15.40;99.90
53294;DHT22;39181;53.440;5.644;2023-09-19T05:59:01;15.50;99.90
53294;DHT22;39181;53.440;5.644;2023-09-19T06:01:29;15.50;99.90
53294;DHT22;39181;53.440;5.644;2023-09-19T06:03:56;15.50;99.90
53294;DHT22;39181;53.440;5.644;2023-09-19T06:06:21;15.50;99.90
53294;DHT22;39181;53.440;5.644;2023-09-19T06:08:47;15.50;99.90
53294;DHT22;39181;53.440;5.644;2023-09-19T06:11:15;15.60;99.90
53294;DHT22;39181;53.440;5.644;2023-09-19T06:13:41;15.60;99.90
53294;DHT22;39181;53.440;5.644;2023-09-19T06:16:06;15.60;99.90
53294;DHT22;39181;53.440;5.644;2023-09-19T06:18:32;15.60;99.90
53294;DHT22;39181;53.440;5.644;2023-09-19T06:20:59;15.60;99.90
53294;DHT22;39181;53.440;5.644;2023-09-19T06:23:25;15.50;99.90
53294;DHT22;39181;53.440;5.644;2023-09-19T06:25:52;15.60;99.90
53294;DHT22;39181;53.440;5.644;2023-09-19T06:28:19;15.60;99.90
53294;DHT22;39181;53.440;5.644;2023-09-19T06:30:49;15.60;99.90
53294;DHT22;39181;53.440;5.644;2023-09-19T06:33:15;15.60;99.90
53294;DHT22;39181;53.440;5.644;2023-09-19T06:35:41;15.60;99.90
53294;DHT22;39181;53.440;5.644;2023-09-19T06:38:07;15.60;99.90
53294;DHT22;39181;53.440;5.644;2023-09-19T06:40:34;15.60;99.90
53294;DHT22;39181;53.440;5.644;2023-09-19T06:43:00;15.60;99.90
53294;DHT22;39181;53.440;5.644;2023-09-19T06:45:27;15.70;99.90
53294;DHT22;39181;53.440;5.644;2023-09-19T06:47:53;15.70;99.90
53294;DHT22;39181;53.440;5.644;2023-09-19T06:50:23;15.70;99.90
53294;DHT22;39181;53.440;5.644;2023-09-19T06:52:53;15.70;99.90
53294;DHT22;39181;53.440;5.644;2023-09-19T06:55:20;15.80;99.90
53294;DHT22;39181;53.440;5.644;2023-09-19T06:57:47;15.80;99.90
53294;DHT22;39181;53.440;5.644;2023-09-19T07:00:13;15.90;99.90
53294;DHT22;39181;53.440;5.644;2023-09-19T07:02:44;15.90;99.90
53294;DHT22;39181;53.440;5.644;2023-09-19T07:05:10;15.90;99.90
53294;DHT22;39181;53.440;5.644;2023-09-19T07:07:36;15.90;99.90
53294;DHT22;39181;53.440;5.644;2023-09-19T07:10:03;16.00;99.90
53294;DHT22;39181;53.440;5.644;2023-09-19T07:12:31;16.00;99.90
53294;DHT22;39181;53.440;5.644;2023-09-19T07:14:58;16.00;99.90
53294;DHT22;39181;53.440;5.644;2023-09-19T07:17:23;16.00;99.90
53294;DHT22;39181;53.440;5.644;2023-09-19T07:19:49;16.10;99.90
53294;DHT22;39181;53.440;5.644;2023-09-19T07:22:15;16.10;99.90
53294;DHT22;39181;53.440;5.644;2023-09-19T07:24:41;16.20;99.90
53294;DHT22;39181;53.440;5.644;2023-09-19T07:27:07;16.20;99.90
53294;DHT22;39181;53.440;5.644;2023-09-19T07:29:35;16.20;99.90
53294;DHT22;39181;53.440;5.644;2023-09-19T07:32:04;16.30;99.90
53294;DHT22;39181;53.440;5.644;2023-09-19T07:34:31;16.30;99.90
53294;DHT22;39181;53.440;5.644;2023-09-19T07:36:56;16.30;99.90
53294;DHT22;39181;53.440;5.644;2023-09-19T07:39:22;16.30;99.90
53294;DHT22;39181;53.440;5.644;2023-09-19T07:41:48;16.30;99.90
53294;DHT22;39181;53.440;5.644;2023-09-19T07:44:14;16.40;99.90
53294;DHT22;39181;53.440;5.644;2023-09-19T07:46:39;16.50;99.90
53294;DHT22;39181;53.440;5.644;2023-09-19T07:49:05;16.60;99.90
53294;DHT22;39181;53.440;5.644;2023-09-19T07:51:31;16.60;99.90
53294;DHT22;39181;53.440;5.644;2023-09-19T07:53:58;16.60;99.90
53294;DHT22;39181;53.440;5.644;2023-09-19T07:56:23;16.60;99.90
53294;DHT22;39181;53.440;5.644;2023-09-19T07:58:51;16.60;99.90
53294;DHT22;39181;53.440;5.644;2023-09-19T08:01:17;16.50;99.90
53294;DHT22;39181;53.440;5.644;2023-09-19T08:03:43;16.60;99.90
53294;DHT22;39181;53.440;5.644;2023-09-19T08:06:09;16.70;99.90
53294;DHT22;39181;53.440;5.644;2023-09-19T08:08:36;16.70;99.90
53294;DHT22;39181;53.440;5.644;2023-09-19T08:11:05;16.80;99.90
53294;DHT22;39181;53.440;5.644;2023-09-19T08:13:41;16.80;99.90
53294;DHT22;39181;53.440;5.644;2023-09-19T08:16:12;16.90;99.90
53294;DHT22;39181;53.440;5.644;2023-09-19T08:18:38;17.00;99.90
53294;DHT22;39181;53.440;5.644;2023-09-19T08:21:07;16.90;99.90
53294;DHT22;39181;53.440;5.644;2023-09-19T08:23:39;17.00;99.90
53294;DHT22;39181;53.440;5.644;2023-09-19T08:26:05;17.00;99.90
53294;DHT22;39181;53.440;5.644;2023-09-19T08:28:34;17.00;99.90
53294;DHT22;39181;53.440;5.644;2023-09-19T08:31:07;17.00;99.90
53294;DHT22;39181;53.440;5.644;2023-09-19T08:33:35;17.10;99.90
53294;DHT22;39181;53.440;5.644;2023-09-19T08:36:04;17.20;99.90
53294;DHT22;39181;53.440;5.644;2023-09-19T08:38:34;17.30;99.90
53294;DHT22;39181;53.440;5.644;2023-09-19T08:41:00;17.40;99.90
53294;DHT22;39181;53.440;5.644;2023-09-19T08:43:27;17.50;99.90
53294;DHT22;39181;53.440;5.644;2023-09-19T08:46:03;17.50;99.90
53294;DHT22;39181;53.440;5.644;2023-09-19T08:48:33;17.70;99.90
53294;DHT22;39181;53.440;5.644;2023-09-19T08:51:03;17.80;99.90
53294;DHT22;39181;53.440;5.644;2023-09-19T08:56:10;18.10;99.90
53294;DHT22;39181;53.440;5.644;2023-09-19T08:58:53;18.30;99.90
53294;DHT22;39181;53.440;5.644;2023-09-19T09:01:21;18.30;99.90
53294;DHT22;39181;53.440;5.644;2023-09-19T09:03:51;18.30;99.90
53294;DHT22;39181;53.440;5.644;2023-09-19T09:06:18;18.40;99.90
53294;DHT22;39181;53.440;5.644;2023-09-19T09:08:46;18.30;99.90
53294;DHT22;39181;53.440;5.644;2023-09-19T09:11:13;18.30;99.90
53294;DHT22;39181;53.440;5.644;2023-09-19T09:13:40;18.20;99.90
53294;DHT22;39181;53.440;5.644;2023-09-19T09:16:07;18.30;99.90
53294;DHT22;39181;53.440;5.644;2023-09-19T09:18:33;18.40;99.90
53294;DHT22;39181;53.440;5.644;2023-09-19T09:20:59;18.40;99.90
53294;DHT22;39181;53.440;5.644;2023-09-19T09:23:27;18.50;99.90
53294;DHT22;39181;53.440;5.644;2023-09-19T09:25:55;18.60;99.90
53294;DHT22;39181;53.440;5.644;2023-09-19T09:28:30;18.70;99.90
53294;DHT22;39181;53.440;5.644;2023-09-19T09:30:57;18.80;99.90
53294;DHT22;39181;53.440;5.644;2023-09-19T09:33:24;18.90;99.90
53294;DHT22;39181;53.440;5.644;2023-09-19T09:36:00;18.90;99.90
53294;DHT22;39181;53.440;5.644;2023-09-19T09:38:29;19.00;99.90
53294;DHT22;39181;53.440;5.644;2023-09-19T09:40:58;19.20;99.90
53294;DHT22;39181;53.440;5.644;2023-09-19T09:43:28;19.30;99.90
53294;DHT22;39181;53.440;5.644;2023-09-19T09:46:07;19.40;99.90
53294;DHT22;39181;53.440;5.644;2023-09-19T09:49:03;19.40;99.90
53294;DHT22;39181;53.440;5.644;2023-09-19T09:51:51;19.60;99.90
53294;DHT22;39181;53.440;5.644;2023-09-19T09:54:25;19.70;99.90
53294;DHT22;39181;53.440;5.644;2023-09-19T09:57:10;19.70;99.90
53294;DHT22;39181;53.440;5.644;2023-09-19T09:59:58;19.60;99.90
53294;DHT22;39181;53.440;5.644;2023-09-19T10:02:30;19.70;99.90
53294;DHT22;39181;53.440;5.644;2023-09-19T10:05:14;19.80;99.90
53294;DHT22;39181;53.440;5.644;2023-09-19T10:07:53;19.90;99.90
53294;DHT22;39181;53.440;5.644;2023-09-19T10:10:38;19.90;99.90
53294;DHT22;39181;53.440;5.644;2023-09-19T10:13:08;19.90;99.90
53294;DHT22;39181;53.440;5.644;2023-09-19T10:15:39;20.00;99.90
53294;DHT22;39181;53.440;5.644;2023-09-19T10:18:10;20.00;99.90
53294;DHT22;39181;53.440;5.644;2023-09-19T10:20:37;20.00;99.90
53294;DHT22;39181;53.440;5.644;2023-09-19T10:23:13;20.10;99.90
53294;DHT22;39181;53.440;5.644;2023-09-19T10:25:40;20.10;99.90
53294;DHT22;39181;53.440;5.644;2023-09-19T10:28:11;20.10;99.90
53294;DHT22;39181;53.440;5.644;2023-09-19T10:30:38;20.20;99.90
53294;DHT22;39181;53.440;5.644;2023-09-19T10:33:11;20.20;99.90
53294;DHT22;39181;53.440;5.644;2023-09-19T10:35:43;20.30;99.90
53294;DHT22;39181;53.440;5.644;2023-09-19T10:38:13;20.30;99.90
53294;DHT22;39181;53.440;5.644;2023-09-19T10:40:40;20.20;99.90
53294;DHT22;39181;53.440;5.644;2023-09-19T10:43:15;20.20;99.90
53294;DHT22;39181;53.440;5.644;2023-09-19T10:45:49;20.20;99.90
53294;DHT22;39181;53.440;5.644;2023-09-19T10:48:16;20.10;99.90
53294;DHT22;39181;53.440;5.644;2023-09-19T10:51:02;19.90;99.90
53294;DHT22;39181;53.440;5.644;2023-09-19T10:54:01;19.70;99.90
53294;DHT22;39181;53.440;5.644;2023-09-19T10:56:38;19.60;99.90
53294;DHT22;39181;53.440;5.644;2023-09-19T10:59:14;19.60;99.90
53294;DHT22;39181;53.440;5.644;2023-09-19T11:01:45;19.70;99.90
53294;DHT22;39181;53.440;5.644;2023-09-19T11:04:32;19.70;99.90
53294;DHT22;39181;53.440;5.644;2023-09-19T11:07:11;19.60;99.90
53294;DHT22;39181;53.440;5.644;2023-09-19T11:15:06;19.70;99.90
53294;DHT22;39181;53.440;5.644;2023-09-19T11:17:40;19.70;99.90
53294;DHT22;39181;53.440;5.644;2023-09-19T11:30:39;18.70;99.90
53294;DHT22;39181;53.440;5.644;2023-09-19T11:33:29;18.40;99.90
53294;DHT22;39181;53.440;5.644;2023-09-19T11:36:16;18.30;99.90
53294;DHT22;39181;53.440;5.644;2023-09-19T11:43:54;18.10;99.90
53294;DHT22;39181;53.440;5.644;2023-09-19T11:49:26;17.90;99.90
53294;DHT22;39181;53.440;5.644;2023-09-19T11:51:55;17.80;99.90
53294;DHT22;39181;53.440;5.644;2023-09-19T11:54:21;17.80;99.90
53294;DHT22;39181;53.440;5.644;2023-09-19T11:56:52;17.80;99.90
53294;DHT22;39181;53.440;5.644;2023-09-19T11:59:21;17.90;99.90
53294;DHT22;39181;53.440;5.644;2023-09-19T12:01:55;18.00;99.90
53294;DHT22;39181;53.440;5.644;2023-09-19T12:07:07;17.90;99.90
53294;DHT22;39181;53.440;5.644;2023-09-19T12:09:38;17.90;99.90
53294;DHT22;39181;53.440;5.644;2023-09-19T12:12:05;17.90;99.90
53294;DHT22;39181;53.440;5.644;2023-09-19T12:14:30;18.10;99.90
53294;DHT22;39181;53.440;5.644;2023-09-19T12:16:57;18.10;99.90
53294;DHT22;39181;53.440;5.644;2023-09-19T12:19:26;18.10;99.90
53294;DHT22;39181;53.440;5.644;2023-09-19T12:21:55;18.10;99.90
53294;DHT22;39181;53.440;5.644;2023-09-19T12:24:24;18.10;99.90
53294;DHT22;39181;53.440;5.644;2023-09-19T12:26:52;18.00;99.90
53294;DHT22;39181;53.440;5.644;2023-09-19T12:29:21;18.10;99.90
53294;DHT22;39181;53.440;5.644;2023-09-19T12:31:53;18.10;99.90
53294;DHT22;39181;53.440;5.644;2023-09-19T12:34:27;18.20;99.90
53294;DHT22;39181;53.440;5.644;2023-09-19T12:37:13;18.20;99.90
53294;DHT22;39181;53.440;5.644;2023-09-19T12:39:45;18.20;99.90
53294;DHT22;39181;53.440;5.644;2023-09-19T12:42:23;18.10;99.90
53294;DHT22;39181;53.440;5.644;2023-09-19T12:44:50;18.10;99.90
53294;DHT22;39181;53.440;5.644;2023-09-19T12:47:23;18.10;99.90
53294;DHT22;39181;53.440;5.644;2023-09-19T12:50:12;18.20;99.90
53294;DHT22;39181;53.440;5.644;2023-09-19T12:52:49;18.20;99.90
53294;DHT22;39181;53.440;5.644;2023-09-19T12:55:29;18.30;99.90
53294;DHT22;39181;53.440;5.644;2023-09-19T12:58:13;18.20;99.90
53294;DHT22;39181;53.440;5.644;2023-09-19T13:00:42;18.10;99.90
53294;DHT22;39181;53.440;5.644;2023-09-19T13:03:25;18.00;99.90
53294;DHT22;39181;53.440;5.644;2023-09-19T13:05:56;18.10;99.90
53294;DHT22;39181;53.440;5.644;2023-09-19T13:08:32;18.10;99.90
53294;DHT22;39181;53.440;5.644;2023-09-19T13:11:09;18.10;99.90
53294;DHT22;39181;53.440;5.644;2023-09-19T13:13:50;18.20;99.90
53294;DHT22;39181;53.440;5.644;2023-09-19T13:16:21;18.20;99.90
53294;DHT22;39181;53.440;5.644;2023-09-19T13:18:54;18.20;99.90
53294;DHT22;39181;53.440;5.644;2023-09-19T13:21:32;18.20;99.90
53294;DHT22;39181;53.440;5.644;2023-09-19T13:24:22;18.00;99.90
53294;DHT22;39181;53.440;5.644;2023-09-19T13:26:51;18.10;99.90
53294;DHT22;39181;53.440;5.644;2023-09-19T13:29:16;18.00;99.90
53294;DHT22;39181;53.440;5.644;2023-09-19T13:31:51;18.00;99.90
53294;DHT22;39181;53.440;5.644;2023-09-19T13:34:18;18.00;99.90
53294;DHT22;39181;53.440;5.644;2023-09-19T13:36:45;18.00;99.90
53294;DHT22;39181;53.440;5.644;2023-09-19T13:39:16;18.20;99.90
53294;DHT22;39181;53.440;5.644;2023-09-19T13:41:45;17.80;99.90
53294;DHT22;39181;53.440;5.644;2023-09-19T13:44:11;17.80;99.90
53294;DHT22;39181;53.440;5.644;2023-09-19T13:46:38;17.80;99.90
53294;DHT22;39181;53.440;5.644;2023-09-19T13:49:03;17.90;99.90
53294;DHT22;39181;53.440;5.644;2023-09-19T13:51:32;17.90;99.90
53294;DHT22;39181;53.440;5.644;2023-09-19T13:53:58;17.80;99.90
53294;DHT22;39181;53.440;5.644;2023-09-19T13:56:27;17.80;99.90
53294;DHT22;39181;53.440;5.644;2023-09-19T13:58:57;17.90;99.90
53294;DHT22;39181;53.440;5.644;2023-09-19T14:01:22;17.90;99.90
53294;DHT22;39181;53.440;5.644;2023-09-19T14:03:48;18.00;99.90
53294;DHT22;39181;53.440;5.644;2023-09-19T14:06:17;17.90;99.90
53294;DHT22;39181;53.440;5.644;2023-09-19T14:08:43;18.00;99.90
53294;DHT22;39181;53.440;5.644;2023-09-19T14:11:10;17.90;99.90
53294;DHT22;39181;53.440;5.644;2023-09-19T14:13:36;18.00;99.90
53294;DHT22;39181;53.440;5.644;2023-09-19T14:16:05;18.00;99.90
53294;DHT22;39181;53.440;5.644;2023-09-19T14:18:31;17.90;99.90
53294;DHT22;39181;53.440;5.644;2023-09-19T14:20:57;17.90;99.90
53294;DHT22;39181;53.440;5.644;2023-09-19T14:23:22;18.00;99.90
53294;DHT22;39181;53.440;5.644;2023-09-19T14:25:50;17.90;99.90
53294;DHT22;39181;53.440;5.644;2023-09-19T14:28:15;17.90;99.90
53294;DHT22;39181;53.440;5.644;2023-09-19T14:30:41;18.00;99.90
53294;DHT22;39181;53.440;5.644;2023-09-19T14:33:06;18.10;99.90
53294;DHT22;39181;53.440;5.644;2023-09-19T14:35:32;18.00;99.90
53294;DHT22;39181;53.440;5.644;2023-09-19T14:37:58;18.00;99.90
53294;DHT22;39181;53.440;5.644;2023-09-19T14:40:24;18.10;99.90
53294;DHT22;39181;53.440;5.644;2023-09-19T14:42:50;18.10;99.90
53294;DHT22;39181;53.440;5.644;2023-09-19T14:45:16;18.10;99.90
53294;DHT22;39181;53.440;5.644;2023-09-19T14:47:45;18.10;99.90
53294;DHT22;39181;53.440;5.644;2023-09-19T14:50:11;18.20;99.90
53294;DHT22;39181;53.440;5.644;2023-09-19T14:52:38;18.20;99.90
53294;DHT22;39181;53.440;5.644;2023-09-19T14:55:06;18.20;99.90
53294;DHT22;39181;53.440;5.644;2023-09-19T14:57:31;18.20;99.90
53294;DHT22;39181;53.440;5.644;2023-09-19T14:59:57;18.20;99.90
53294;DHT22;39181;53.440;5.644;2023-09-19T15:02:24;18.20;99.90
53294;DHT22;39181;53.440;5.644;2023-09-19T15:04:51;18.30;99.90
53294;DHT22;39181;53.440;5.644;2023-09-19T15:07:17;18.30;99.90
53294;DHT22;39181;53.440;5.644;2023-09-19T15:09:43;18.40;99.90
53294;DHT22;39181;53.440;5.644;2023-09-19T15:12:09;18.30;99.90
53294;DHT22;39181;53.440;5.644;2023-09-19T15:14:36;18.40;99.90
53294;DHT22;39181;53.440;5.644;2023-09-19T15:17:02;18.40;99.90
53294;DHT22;39181;53.440;5.644;2023-09-19T15:19:30;18.40;99.90
53294;DHT22;39181;53.440;5.644;2023-09-19T15:21:55;18.40;99.90
53294;DHT22;39181;53.440;5.644;2023-09-19T15:24:22;18.40;99.90
53294;DHT22;39181;53.440;5.644;2023-09-19T15:26:48;18.40;99.90
53294;DHT22;39181;53.440;5.644;2023-09-19T15:29:14;18.50;99.90
53294;DHT22;39181;53.440;5.644;2023-09-19T15:31:40;18.40;99.90
53294;DHT22;39181;53.440;5.644;2023-09-19T15:34:05;18.40;99.90
53294;DHT22;39181;53.440;5.644;2023-09-19T15:36:33;18.30;99.90
53294;DHT22;39181;53.440;5.644;2023-09-19T15:39:03;18.30;99.90
53294;DHT22;39181;53.440;5.644;2023-09-19T15:41:34;18.40;99.90
53294;DHT22;39181;53.440;5.644;2023-09-19T15:44:02;18.40;99.90
53294;DHT22;39181;53.440;5.644;2023-09-19T15:46:29;18.40;99.90
53294;DHT22;39181;53.440;5.644;2023-09-19T15:48:57;18.40;99.90
53294;DHT22;39181;53.440;5.644;2023-09-19T15:51:23;18.40;99.90
53294;DHT22;39181;53.440;5.644;2023-09-19T15:53:50;18.40;99.90
53294;DHT22;39181;53.440;5.644;2023-09-19T15:56:17;18.30;99.90
53294;DHT22;39181;53.440;5.644;2023-09-19T15:58:46;18.30;99.90
53294;DHT22;39181;53.440;5.644;2023-09-19T16:01:13;18.30;99.90
53294;DHT22;39181;53.440;5.644;2023-09-19T16:03:41;18.20;99.90
53294;DHT22;39181;53.440;5.644;2023-09-19T16:06:13;18.20;99.90
53294;DHT22;39181;53.440;5.644;2023-09-19T16:08:46;18.40;99.90
53294;DHT22;39181;53.440;5.644;2023-09-19T16:11:13;18.20;99.90
53294;DHT22;39181;53.440;5.644;2023-09-19T16:13:39;18.10;99.90
53294;DHT22;39181;53.440;5.644;2023-09-19T16:16:11;18.00;99.90
53294;DHT22;39181;53.440;5.644;2023-09-19T16:18:38;18.00;99.90
53294;DHT22;39181;53.440;5.644;2023-09-19T16:21:05;18.00;99.90
53294;DHT22;39181;53.440;5.644;2023-09-19T16:23:31;18.00;99.90
53294;DHT22;39181;53.440;5.644;2023-09-19T16:26:05;18.00;99.90